Flight Track Log - Related Links

Times and Time Zones

All times are in EDT time to prevent confusion due to time zone crossing. See the EJM826 flight status page for this flight to view local times or setup timezone preferences in your user account.

Time Position Orientation Groundspeed Altitude Reporting Facility
EDT Latitude Longitude Course Direction KTS MPH feet Rate Location/Type
Fri 03:57:57 PM 28.8761 -96.8906 319° Northwest 210 242 2,800  Level Houston Center
Fri 03:58:59 PM 28.9389 -96.9475 322° Northwest 226 260 4,500 2,032 Climbing Houston Center
Fri 04:00:01 PM 28.9989 -97.0058 320° Northwest 263 303 7,000 2,226 Climbing Houston Center
Fri 04:01:03 PM 29.0603 -97.0661 319° Northwest 282 325 9,100 1,968 Climbing Houston Center
Fri 04:02:06 PM 29.1244 -97.1281 320° Northwest 294 338 11,100 1,728 Climbing Houston Center
Fri 04:03:08 PM 29.1894 -97.1925 319° Northwest 301 346 12,700 1,645 Climbing Houston Center
Fri 04:04:00 PM 29.2777 -97.3253 319° Northwest  Level Estimated
Fri 04:04:10 PM 29.2575 -97.2572 320° Northwest 313 360 14,500  Level Houston Center
Fri 04:05:12 PM 29.3261 -97.3233 320° Northwest 318 366 16,200 1,645 Climbing Houston Center
Fri 04:06:14 PM 29.4122 -97.4075 320° Northwest 333 383 17,900 1,548 Climbing Houston Center
Fri 04:07:16 PM 29.4836 -97.4783 319° Northwest 338 389 19,400 1,355 Climbing Houston Center
Fri 04:08:18 PM 29.5572 -97.5500 320° Northwest 344 396 20,700 1,210 Climbing Houston Center
Fri 04:09:20 PM 29.6325 -97.6247 319° Northwest 353 406 21,900 1,104 Climbing Houston Center
Fri 04:10:23 PM 29.7092 -97.6986 320° Northwest 357 411 23,000 1,152 Climbing Houston Center
Fri 04:11:25 PM 29.7867 -97.7769 319° Northwest 367 422 24,300 1,258 Climbing Houston Center
Fri 04:12:27 PM 29.8781 -97.8672 319° Northwest 371 427 25,600 1,113 Climbing Houston Center
Fri 04:13:29 PM 29.9647 -97.9522 320° Northwest 378 435 26,600 968 Climbing Houston Center
Fri 04:14:31 PM 30.0461 -98.0336 319° Northwest 386 444 27,600 1,065 Climbing Houston Center
Fri 04:15:33 PM 30.1336 -98.1222 319° Northwest 390 449 28,800 1,016 Climbing Houston Center
Fri 04:16:35 PM 30.2006 -98.2211 308° West 391 450 29,700 919 Climbing Houston Center
Fri 04:17:37 PM 30.2742 -98.3261 309° West 392 451 30,700 968 Climbing Houston Center
Fri 04:18:39 PM 30.3419 -98.4225 309° West 398 458 31,700 864 Climbing Houston Center
Fri 04:19:42 PM 30.4111 -98.5236 308° West 396 456 32,500 1,056 Climbing Houston Center
Fri 04:20:44 PM 30.4828 -98.6253 309° West 401 461 33,900 1,258 Climbing Houston Center
Fri 04:21:46 PM 30.5522 -98.7264 309° West 397 457 35,100 1,016 Climbing Houston Center
Fri 04:22:48 PM 30.6208 -98.8247 309° West 390 449 36,000 435 Climbing Houston Center
Fri 04:23:50 PM 30.7011 -98.9439 308° West 397 457 36,000  Level Houston Center
Fri 04:24:52 PM 30.7753 -99.0506 309° West 414 476 36,000  Level Houston Center
Fri 04:25:54 PM 30.8456 -99.1528 309° West 425 489 36,000  Level Houston Center
Fri 04:26:56 PM 30.9192 -99.2614 308° West 429 494 36,000  Level Houston Center
Fri 04:27:59 PM 30.9939 -99.3711 308° West 433 498 36,000  Level Houston Center
Fri 04:29:01 PM 31.0819 -99.5011 308° West 428 493 36,000  Level Houston Center
Fri 04:30:03 PM 31.1550 -99.6086 308° West 425 489 36,000 -48 Level Houston Center
Fri 04:31:05 PM 31.2283 -99.7181 308° West 428 493 35,900  Descending Houston Center
Fri 04:32:07 PM 31.3047 -99.8308 308° West 439 505 36,000 48 Climbing Houston Center
Fri 04:33:09 PM 31.3783 -99.9394 308° West 434 499 36,000  Level Houston Center
Fri 04:34:11 PM 31.4650 -100.0708 308° West 431 496 36,000 -48 Level Houston Center
Fri 04:35:13 PM 31.5386 -100.1811 308° West 429 494 35,900  Descending Houston Center
Fri 04:36:15 PM 31.6111 -100.2906 308° West 429 494 36,000 44 Climbing Houston Center
Fri 04:37:29 PM 31.7286 -100.4103 319° Northwest 422 486 36,000  Level Fort Worth Center
Fri 04:38:29 PM 31.8333 -100.4869 328° Northwest 429 494 36,000  Level Fort Worth Center
Fri 04:39:29 PM 31.9400 -100.5617 329° Northwest 441 507 36,000  Level Fort Worth Center
Fri 04:40:29 PM 32.0444 -100.6361 329° Northwest 441 507 36,000  Level Fort Worth Center
Fri 04:41:29 PM 32.1511 -100.7136 328° Northwest 447 514 36,000  Level Fort Worth Center
Fri 04:42:29 PM 32.2575 -100.7911 328° Northwest 447 514 36,000  Level Fort Worth Center
Fri 04:43:29 PM 32.3642 -100.8664 329° Northwest 447 514 36,000  Level Fort Worth Center
Fri 04:44:29 PM 32.4686 -100.9419 329° Northwest 447 514 36,000  Level Fort Worth Center
Fri 04:45:29 PM 32.5769 -101.0200 329° Northwest 447 514 36,000  Level Fort Worth Center
Fri 04:46:29 PM 32.6833 -101.0958 329° Northwest 447 514 36,000  Level Fort Worth Center
Fri 04:47:29 PM 32.7894 -101.1744 328° Northwest 447 514 36,000 -700 Level Fort Worth Center
Fri 04:48:29 PM 32.8978 -101.2531 329° Northwest 447 514 34,600 -1,600 Descending Fort Worth Center
Fri 04:49:29 PM 32.9978 -101.3244 329° Northwest 454 522 32,800 -1,950 Descending Fort Worth Center
Fri 04:50:29 PM 33.1183 -101.4089 330° Northwest 454 522 30,700 -2,000 Descending Fort Worth Center
Fri 04:51:29 PM 33.2119 -101.4803 327° Northwest 454 522 28,800 -2,169 Descending Fort Worth Center
Fri 04:51:52 PM 33.2586 -101.5197 325° Northwest 438 504 27,700 -3,100 Descending Fort Worth Center
Fri 04:52:29 PM 33.3261 -101.5650 331° Northwest 444 511 25,700 -3,639 Descending Fort Worth Center
Fri 04:52:53 PM 33.3625 -101.5992 322° Northwest 442 509 24,000 -4,100 Descending Fort Worth Center
Fri 04:53:29 PM 33.4197 -101.6367 331° Northwest 444 511 21,600 -4,328 Descending Fort Worth Center
Fri 04:53:54 PM 33.4750 -101.6617 339° North 456 525 19,600 -4,800 Descending Fort Worth Center
Fri 04:54:29 PM 33.5569 -101.6458 North 444 511 16,800 -4,200 Descending Fort Worth Center
Fri 04:54:54 PM 33.6033 -101.6381 North 470 541 15,400 -3,300 Descending Fort Worth Center
Fri 04:55:29 PM 33.6667 -101.6161 16° North 444 511 13,500 -3,738 Descending Fort Worth Center
Fri 04:55:55 PM 33.7275 -101.6042 North 437 503 11,600 -3,100 Descending Fort Worth Center
Fri 04:56:29 PM 33.7872 -101.5669 27° Northeast 426 490 10,400 -1,700 Descending Fort Worth Center
Fri 04:56:55 PM 33.8033 -101.5153 69° East 385 443 9,900 -700 Descending Fort Worth Center
Fri 04:57:29 PM 33.7861 -101.4719 116° Southeast 315 362 9,700 -1,475 Descending Fort Worth Center
Fri 04:57:56 PM 33.7422 -101.4700 178° South 275 316 8,400 -2,000 Descending Fort Worth Center
Fri 04:58:29 PM 33.7103 -101.4958 214° Southwest 158 182 7,700 -1,180 Descending Fort Worth Center
Fri 04:58:57 PM 33.6903 -101.5325 237° Southwest 252 290 7,200 -1,000 Descending Fort Worth Center
Fri 04:59:29 PM 33.6808 -101.5644 250° West 201 231 6,700 -1,200 Descending Fort Worth Center
Fri 04:59:57 PM 33.6647 -101.6111 247° West 247 284 6,000 -900 Descending Fort Worth Center
Fri 05:00:29 PM 33.6633 -101.6508 268° West 239 275 5,800 -448 Descending Fort Worth Center
Fri 05:01:04 PM 33.6619 -101.6933 268° West 199 229 5,500 -800 Descending Fort Worth Center
Fri 05:01:29 PM 33.6633 -101.7108 275° West 222 255 5,000 -1,254 Descending Fort Worth Center
Fri 05:02:11 PM 33.6600 -101.7506 264° West 154 177 4,100 -1,200 Descending Fort Worth Center
Fri 05:02:29 PM 33.6614 -101.7656 276° West 178 205 3,800 -764 Descending Fort Worth Center
Fri 05:03:06 PM 33.6583 -101.7953 263° West 136 157 3,400 -500 Descending Fort Worth Center
Fri 05:03:29 PM 33.6625 -101.7981 331° Northwest 152 175 3,300 7,663 Descending Fort Worth Center
Fri 05:04:29 PM 33.6603 -101.8578 267° West 152 175 14,000 5,350 Climbing Fort Worth Center
Fri 05:05:29 PM 33.6586 -101.9078 268° West 152 175 14,000  Level Fort Worth Center
Fri 05:06:29 PM 33.6567 -101.9575 267° West 152 175 14,000  Level Fort Worth Center
Fri 05:08:00 PM 33.6637 -101.8206 86° East  Level Estimated
Fri 05:15:00 PM 33.6637 -101.8206 132° Southeast  Level Estimated

Login

Don't have an account? Register now (free) for customized features, flight alerts, and more!